Aeroporto :
LOGIN :

Iscrizione | Disclaimer

   EN    FR    IT 

 










Sommario :    VFR   VFR Marginale   IFR   IFR Intensivo   IFR Molto Intensivo
Visibilità : 
Base nubi : 
>= 8 km
>= 3000ft
5 / 8 km
1000 / 3000 ft
1500m / 5 km
500 / 1000 ft
800 / 1500m
200 / 500 ft
< 800m
< 200 ft
Simboli :   Temporali  Nebbia  Neve Forte  Precipitazioni Forti  Vento > 20 kt
SIGMETs :   Varie  Temporali  Ghiacco  Turbolenza  Onda orograficha  Ceneri Vulcaniche







- Altitudine del aeroporto : 383 ft
- Codice IATA : UDJ


UKLU - Uzhhorod

ULTIMO METAR :
  • 191400Z 16002MPS 090V230 9999 NSC 26/12 Q1006 R10/090070 NOSIG

METARs OBSOLETI :
  • 191330Z VRB03MPS 9999 NSC 25/13 Q1007 R10/090070 NOSIG
  • 191300Z 14003MPS 080V230 9999 NSC 25/13 Q1007 R10/090070 NOSIG
  • 191230Z 17002MPS 110V240 9999 NSC 24/12 Q1007 R10/090070 NOSIG
  • 191200Z 14002MPS 080V250 9999 NSC 24/12 Q1007 R10/090070 NOSIG
  • 191130Z VRB02MPS 9999 NSC 25/13 Q1007 R10/090070 NOSIG

TAF TAF UKLU
Valido dal 19 a 12 ore il 19 a 21 ore UTC


191105Z 1912/1921 14003MPS 9999 NSC TX28/1915Z TN22/1921Z
TEMPO 1912/1918 SCT040CB
Nessun NOTAM noto per questo aeroporto.
1 SIGMET conosciuto per la FIR L'VIV (UKLV) :
 
Temporali affogati con grandine
UKLV SIGMET 1 VALID 191230/191500 UKLW
UKLV LVIV FIR/UIR EMBD TSGR FCST N OF N49 TOP FL420 MOV NW 30KMH NC=



MetMap, La meteo Aeronautica in un colpo d'occhio ! - Copyright ORBIFLY Dicembre 2007 - Disclaimer

ORBIFLY MET'MAP TEAM :

Programmazione e sviluppo : Alexandra Zaïnal
Concezione e sviluppo : Baudouin d'Aumeries
Co-Programmazione e sviluppo : Marc-Olivier Méhu
Supporto tecnico e logistico : Manuel Goepfert
Aiuto per la traduzione : Arnaldo La Scala

Contatto : metmap@orbifly.com




FONTI E CREDITI :

   NOAA